createdAt,value
2018-08-20T00:01:46.311Z,97.54
2018-08-20T00:04:16.365Z,98.71
2018-08-20T00:06:53.437Z,99.13
2018-08-20T00:09:34.031Z,98.45
2018-08-20T00:12:04.241Z,98.75
2018-08-20T00:14:33.679Z,99.49
2018-08-20T00:17:03.533Z,99.47
2018-08-20T00:19:33.885Z,99.17
2018-08-20T00:22:03.451Z,99.85
2018-08-20T00:24:33.564Z,99.96
2018-08-20T00:27:03.760Z,100.00
2018-08-20T00:29:37.241Z,100.00
2018-08-20T00:32:07.083Z,100.00
2018-08-20T00:34:37.339Z,99.94
2018-08-20T00:37:06.908Z,100.00
2018-08-20T00:39:36.414Z,99.83
2018-08-20T00:42:06.241Z,100.00
2018-08-20T00:44:36.562Z,100.00
2018-08-20T00:47:05.893Z,100.00
2018-08-20T00:49:35.319Z,99.93
2018-08-20T00:52:04.666Z,99.94
2018-08-20T00:54:33.956Z,100.00
2018-08-20T00:57:03.463Z,99.99
2018-08-20T00:59:33.228Z,99.19
2018-08-20T01:02:02.679Z,99.85
2018-08-20T01:04:32.204Z,100.00
2018-08-20T01:07:01.967Z,99.99
2018-08-20T01:09:31.432Z,99.57
2018-08-20T01:12:01.009Z,99.23
2018-08-20T01:14:30.321Z,99.12
2018-08-20T01:17:00.987Z,99.21
2018-08-20T01:19:30.386Z,98.85
2018-08-20T01:21:59.838Z,98.81
2018-08-20T01:24:29.145Z,98.97
2018-08-20T01:26:58.648Z,98.40
2018-08-20T01:29:28.027Z,97.72
2018-08-20T01:31:57.270Z,98.09
2018-08-20T01:34:26.623Z,97.36
2018-08-20T01:36:56.145Z,97.51
2018-08-20T01:39:25.370Z,96.89
2018-08-20T01:41:55.017Z,97.08
2018-08-20T01:44:24.290Z,97.67
2018-08-20T01:46:53.617Z,97.82
2018-08-20T01:49:22.862Z,99.20
2018-08-20T01:51:52.628Z,100.00
2018-08-20T01:54:22.084Z,100.00
2018-08-20T01:56:51.452Z,100.00
2018-08-20T01:59:20.725Z,100.00
2018-08-20T02:01:50.648Z,100.00
2018-08-20T02:04:19.957Z,100.00
2018-08-20T02:06:50.586Z,100.00
2018-08-20T02:09:19.913Z,100.00
2018-08-20T02:11:49.227Z,100.00
2018-08-20T02:14:19.026Z,100.00
2018-08-20T02:16:48.386Z,100.00
2018-08-20T02:19:17.753Z,100.00
2018-08-20T02:21:47.753Z,100.00
2018-08-20T02:24:17.046Z,100.00
2018-08-20T02:26:46.370Z,100.00
2018-08-20T02:29:15.853Z,100.00
2018-08-20T02:31:45.190Z,100.00
2018-08-20T02:34:14.397Z,100.00
2018-08-20T02:36:43.867Z,100.00
2018-08-20T02:39:14.505Z,100.00
2018-08-20T02:41:44.223Z,100.00
2018-08-20T02:44:13.603Z,100.00
2018-08-20T02:46:49.704Z,100.00
2018-08-20T02:49:19.346Z,100.00
2018-08-20T02:51:50.324Z,100.00
2018-08-20T02:54:19.652Z,100.00
2018-08-20T02:56:48.967Z,100.00
2018-08-20T02:59:18.515Z,100.00
2018-08-20T03:01:47.921Z,100.00
2018-08-20T03:04:17.194Z,100.00
2018-08-20T03:06:46.528Z,100.00
2018-08-20T03:09:17.013Z,100.00
2018-08-20T03:11:46.312Z,100.00
2018-08-20T03:14:15.591Z,100.00
2018-08-20T03:16:44.960Z,100.00
2018-08-20T03:19:14.252Z,100.00
2018-08-20T03:21:43.581Z,100.00
2018-08-20T03:24:13.102Z,100.00
2018-08-20T03:26:42.335Z,100.00
2018-08-20T03:29:11.770Z,100.00
2018-08-20T03:31:40.952Z,100.00
2018-08-20T03:34:10.216Z,100.00
2018-08-20T03:36:39.594Z,100.00
2018-08-20T03:39:09.131Z,100.00
2018-08-20T03:41:39.721Z,100.00
2018-08-20T03:44:09.441Z,100.00
2018-08-20T03:46:38.935Z,100.00
2018-08-20T03:49:08.241Z,100.00
2018-08-20T03:51:37.517Z,100.00
2018-08-20T03:54:06.972Z,100.00
2018-08-20T03:56:36.267Z,100.00
2018-08-20T03:59:06.025Z,100.00
2018-08-20T04:01:35.529Z,100.00
2018-08-20T04:04:04.996Z,100.00
2018-08-20T04:06:34.552Z,100.00
2018-08-20T04:09:04.877Z,100.00
2018-08-20T04:11:34.591Z,100.00
2018-08-20T04:14:04.311Z,100.00
2018-08-20T04:16:33.703Z,100.00
2018-08-20T04:19:06.483Z,100.00
2018-08-20T04:21:36.406Z,100.00
2018-08-20T04:24:06.229Z,100.00
2018-08-20T04:26:35.664Z,100.00
2018-08-20T04:29:05.281Z,100.00
2018-08-20T04:31:34.708Z,100.00
2018-08-20T04:34:04.543Z,100.00
2018-08-20T04:36:33.887Z,100.00
2018-08-20T04:39:05.134Z,100.00
2018-08-20T04:41:40.332Z,100.00
2018-08-20T04:44:18.635Z,100.00
2018-08-20T04:47:01.378Z,100.00
2018-08-20T04:49:43.169Z,100.00
2018-08-20T04:52:12.532Z,100.00
2018-08-20T04:54:41.837Z,100.00
2018-08-20T04:57:11.645Z,100.00
2018-08-20T04:59:41.123Z,100.00
2018-08-20T05:02:11.107Z,100.00
2018-08-20T05:04:40.753Z,100.00
2018-08-20T05:07:10.461Z,100.00
2018-08-20T05:09:40.242Z,100.00
2018-08-20T05:12:10.238Z,100.00
2018-08-20T05:14:40.625Z,100.00
2018-08-20T05:17:10.858Z,100.00
2018-08-20T05:19:40.128Z,100.00
2018-08-20T05:22:09.518Z,100.00
2018-08-20T05:24:39.096Z,100.00
2018-08-20T05:27:08.853Z,100.00
2018-08-20T05:29:38.313Z,100.00
2018-08-20T05:32:08.026Z,100.00
2018-08-20T05:34:37.437Z,100.00
2018-08-20T05:37:07.129Z,100.00
2018-08-20T05:39:36.823Z,100.00
2018-08-20T05:42:06.440Z,100.00
2018-08-20T05:44:36.301Z,100.00
2018-08-20T05:47:06.193Z,100.00
2018-08-20T05:49:35.752Z,100.00
2018-08-20T05:52:05.502Z,100.00
2018-08-20T05:54:35.109Z,100.00
2018-08-20T05:57:04.846Z,100.00
2018-08-20T05:59:34.200Z,100.00
2018-08-20T06:02:03.833Z,100.00
2018-08-20T06:04:33.154Z,100.00
2018-08-20T06:07:02.642Z,100.00
2018-08-20T06:09:32.676Z,100.00
2018-08-20T06:12:02.318Z,100.00
2018-08-20T06:14:31.749Z,99.10
2018-08-20T06:17:01.239Z,98.94
2018-08-20T06:19:30.610Z,99.20
2018-08-20T06:22:00.080Z,99.37
2018-08-20T06:24:29.447Z,98.88
2018-08-20T06:26:58.808Z,98.50
2018-08-20T06:29:28.307Z,98.03
2018-08-20T06:31:57.998Z,97.41
2018-08-20T06:34:27.213Z,97.33
2018-08-20T06:36:56.656Z,96.71
2018-08-20T06:39:26.071Z,97.19
2018-08-20T06:41:55.350Z,96.22
2018-08-20T06:44:24.808Z,96.19
2018-08-20T06:46:54.175Z,96.73
2018-08-20T06:49:23.518Z,97.47
2018-08-20T06:51:52.787Z,98.37
2018-08-20T06:54:22.323Z,98.19
2018-08-20T06:56:51.644Z,97.47
2018-08-20T06:59:21.519Z,96.79
2018-08-20T07:01:51.233Z,96.51
2018-08-20T07:04:21.029Z,96.53
2018-08-20T07:06:50.340Z,95.59
2018-08-20T07:09:19.769Z,95.36
2018-08-20T07:11:49.244Z,94.30
2018-08-20T07:14:29.757Z,94.50
2018-08-20T07:16:59.248Z,93.61
2018-08-20T07:19:28.600Z,93.27
2018-08-20T07:21:58.267Z,92.44
2018-08-20T07:24:27.536Z,92.47
2018-08-20T07:26:56.800Z,92.47
2018-08-20T07:29:41.006Z,91.28
2018-08-20T07:32:12.213Z,91.68
2018-08-20T07:34:43.820Z,91.61
2018-08-20T07:37:14.472Z,91.90
2018-08-20T07:39:46.198Z,92.70
2018-08-20T07:42:15.567Z,93.17
2018-08-20T07:44:45.456Z,92.97
2018-08-20T07:47:15.483Z,92.04
2018-08-20T07:49:44.803Z,90.95
2018-08-20T07:52:14.290Z,91.67
2018-08-20T07:54:43.857Z,90.74
2018-08-20T07:57:13.204Z,88.48
2018-08-20T07:59:42.586Z,86.49
2018-08-20T08:02:12.184Z,86.10
2018-08-20T08:04:41.799Z,86.79
2018-08-20T08:07:11.838Z,86.37
2018-08-20T08:09:41.236Z,87.25
2018-08-20T08:12:10.754Z,86.82
2018-08-20T08:14:40.132Z,87.29
2018-08-20T08:17:09.861Z,88.71
2018-08-20T08:19:39.246Z,90.55
2018-08-20T08:22:08.884Z,91.51
2018-08-20T08:24:38.741Z,93.39
2018-08-20T08:27:08.398Z,92.52
2018-08-20T08:29:37.911Z,91.78
2018-08-20T08:32:07.502Z,91.43
2018-08-20T08:34:37.810Z,90.20
2018-08-20T08:37:08.037Z,88.23
2018-08-20T08:39:38.724Z,87.77
2018-08-20T08:42:08.353Z,86.76
2018-08-20T08:44:38.124Z,86.66
2018-08-20T08:47:07.965Z,87.88
2018-08-20T08:49:37.818Z,88.47
2018-08-20T08:52:07.496Z,88.06
2018-08-20T08:54:37.307Z,87.17
2018-08-20T08:57:07.064Z,86.62
2018-08-20T08:59:36.543Z,85.89
2018-08-20T09:02:06.337Z,84.51
2018-08-20T09:04:35.757Z,83.10
2018-08-20T09:07:05.752Z,82.26
2018-08-20T09:09:35.201Z,85.00
2018-08-20T09:12:04.721Z,87.54
2018-08-20T09:14:34.101Z,87.86
2018-08-20T09:17:03.517Z,87.01
2018-08-20T09:19:33.129Z,84.74
2018-08-20T09:22:02.945Z,84.30
2018-08-20T09:24:32.397Z,81.38
2018-08-20T09:27:01.886Z,78.10
2018-08-20T09:29:31.303Z,75.00
2018-08-20T09:32:01.109Z,73.34
2018-08-20T09:34:30.607Z,74.05
2018-08-20T09:37:00.825Z,72.42
2018-08-20T09:39:31.194Z,73.49
2018-08-20T09:42:00.709Z,73.02
2018-08-20T09:44:30.416Z,70.57
2018-08-20T09:46:59.809Z,72.14
2018-08-20T09:49:30.049Z,72.12
2018-08-20T09:51:59.715Z,71.44
2018-08-20T09:54:29.041Z,70.24
2018-08-20T09:56:58.404Z,72.61
2018-08-20T09:59:27.736Z,70.77
2018-08-20T10:01:57.053Z,71.95
2018-08-20T10:04:26.428Z,71.14
2018-08-20T10:06:55.728Z,69.91
2018-08-20T10:09:25.042Z,69.77
2018-08-20T10:11:55.331Z,71.31
2018-08-20T10:14:24.945Z,70.19
2018-08-20T10:16:54.373Z,70.75
2018-08-20T10:19:23.679Z,71.99
2018-08-20T10:21:54.240Z,70.82
2018-08-20T10:24:23.510Z,71.12
2018-08-20T10:26:52.906Z,70.47
2018-08-20T10:29:22.306Z,69.39
2018-08-20T10:31:51.602Z,69.83
2018-08-20T10:34:20.934Z,69.60
2018-08-20T10:36:50.481Z,70.17
2018-08-20T10:39:19.917Z,71.05
2018-08-20T10:41:49.435Z,70.31
2018-08-20T10:44:18.764Z,71.40
2018-08-20T10:46:48.028Z,71.97
2018-08-20T10:49:17.442Z,72.08
2018-08-20T10:51:46.764Z,72.18
2018-08-20T10:54:16.362Z,72.91
2018-08-20T10:56:45.839Z,71.55
2018-08-20T10:59:15.441Z,71.11
2018-08-20T11:01:44.849Z,71.84
2018-08-20T11:04:14.349Z,71.39
2018-08-20T11:06:44.124Z,70.09
2018-08-20T11:09:13.975Z,70.42
2018-08-20T11:11:43.394Z,70.81
2018-08-20T11:14:13.135Z,71.08
2018-08-20T11:16:42.610Z,69.67
2018-08-20T11:19:12.321Z,69.94
2018-08-20T11:21:42.066Z,70.78
2018-08-20T11:24:11.696Z,71.00
2018-08-20T11:26:41.364Z,71.82
2018-08-20T11:29:11.205Z,70.44
2018-08-20T11:31:41.136Z,69.95
2018-08-20T11:34:10.863Z,69.82
2018-08-20T11:36:40.524Z,68.09
2018-08-20T11:39:10.199Z,67.30
2018-08-20T11:41:40.234Z,67.85
2018-08-20T11:44:10.218Z,66.28
2018-08-20T11:46:40.125Z,63.86
2018-08-20T11:49:10.140Z,60.54
2018-08-20T11:51:39.365Z,57.68
2018-08-20T11:54:08.781Z,55.90
2018-08-20T11:56:38.555Z,54.26
2018-08-20T11:59:08.061Z,54.76
2018-08-20T12:01:37.769Z,55.09
2018-08-20T12:04:07.174Z,55.50
2018-08-20T12:06:36.623Z,55.35
2018-08-20T12:09:07.446Z,53.57
2018-08-20T12:11:36.828Z,53.00
2018-08-20T12:14:06.288Z,52.53
2018-08-20T12:16:35.794Z,51.96
2018-08-20T12:19:05.721Z,51.55
2018-08-20T12:21:35.205Z,50.88
2018-08-20T12:24:05.288Z,50.00
2018-08-20T12:26:35.902Z,49.03
2018-08-20T12:29:05.927Z,48.82
2018-08-20T12:31:35.281Z,50.76
2018-08-20T12:34:05.248Z,51.83
2018-08-20T12:36:34.907Z,53.40
2018-08-20T12:39:05.413Z,54.27
2018-08-20T12:41:34.950Z,55.15
2018-08-20T12:44:04.823Z,54.92
2018-08-20T12:46:34.286Z,56.69
2018-08-20T12:49:04.557Z,56.63
2018-08-20T12:51:34.068Z,56.84
2018-08-20T12:54:03.662Z,58.06
2018-08-20T12:56:33.295Z,57.05
2018-08-20T12:59:02.738Z,58.02
2018-08-20T13:01:32.471Z,57.56
2018-08-20T13:04:02.591Z,55.52
2018-08-20T13:06:33.351Z,55.64
2018-08-20T13:09:03.301Z,54.97
2018-08-20T13:11:32.863Z,54.33
2018-08-20T13:14:02.919Z,53.01
2018-08-20T13:16:32.499Z,50.24
2018-08-20T13:19:01.941Z,50.39
2018-08-20T13:21:31.504Z,48.67
2018-08-20T13:24:01.362Z,47.32
2018-08-20T13:26:30.852Z,48.34
2018-08-20T13:29:00.912Z,48.18
2018-08-20T13:31:31.339Z,47.29
2018-08-20T13:34:00.775Z,47.81
2018-08-20T13:36:31.389Z,49.42
2018-08-20T13:39:01.070Z,51.52
2018-08-20T13:41:30.469Z,51.94
2018-08-20T13:43:59.858Z,51.23
2018-08-20T13:46:29.044Z,52.18
2018-08-20T13:48:58.523Z,53.03
2018-08-20T13:51:27.949Z,53.59
2018-08-20T13:53:57.558Z,53.99
2018-08-20T13:56:26.916Z,53.94
2018-08-20T13:58:56.873Z,53.38
2018-08-20T14:01:26.384Z,52.62
2018-08-20T14:03:56.760Z,52.29
2018-08-20T14:06:26.056Z,51.70
2018-08-20T14:08:55.738Z,50.37
2018-08-20T14:11:25.014Z,50.63
2018-08-20T14:13:56.057Z,50.00
2018-08-20T14:16:25.281Z,49.76
2018-08-20T14:18:55.494Z,47.95
2018-08-20T14:21:24.877Z,46.01
2018-08-20T14:23:54.100Z,44.55
2018-08-20T14:26:23.306Z,42.81
2018-08-20T14:28:52.670Z,43.53
2018-08-20T14:31:22.207Z,43.17
2018-08-20T14:33:51.542Z,43.44
2018-08-20T14:36:20.845Z,44.09
2018-08-20T14:38:50.048Z,44.57
2018-08-20T14:41:19.346Z,45.02
2018-08-20T14:43:48.717Z,45.49
2018-08-20T14:46:22.992Z,46.87
2018-08-20T14:48:54.487Z,46.03
2018-08-20T14:51:23.761Z,46.13
2018-08-20T14:53:53.193Z,48.41
2018-08-20T14:56:22.650Z,50.19
2018-08-20T14:58:52.800Z,51.85
2018-08-20T15:01:23.289Z,53.06
2018-08-20T15:03:52.682Z,54.01
2018-08-20T15:06:21.984Z,53.32
2018-08-20T15:08:51.403Z,53.63
2018-08-20T15:11:20.761Z,53.92
2018-08-20T15:13:50.034Z,54.33
2018-08-20T15:16:20.133Z,53.58
2018-08-20T15:18:50.301Z,53.34
2018-08-20T15:21:20.221Z,53.67
2018-08-20T15:23:49.583Z,53.23
2018-08-20T15:26:19.176Z,53.04
2018-08-20T15:28:48.401Z,53.14
2018-08-20T15:31:18.053Z,54.06
2018-08-20T15:33:47.321Z,54.51
2018-08-20T15:36:16.605Z,55.95
2018-08-20T15:38:46.236Z,55.34
2018-08-20T15:41:15.639Z,56.74
2018-08-20T15:43:44.895Z,56.81
2018-08-20T15:46:14.334Z,54.49
2018-08-20T15:48:43.613Z,54.36
2018-08-20T15:51:12.870Z,55.12
2018-08-20T15:53:42.278Z,55.44
2018-08-20T15:56:11.927Z,56.74
2018-08-20T15:58:41.245Z,58.30
2018-08-20T16:01:10.887Z,55.52
2018-08-20T16:03:40.420Z,56.38
2018-08-20T16:06:09.966Z,55.18
2018-08-20T16:08:39.603Z,54.99
2018-08-20T16:11:09.103Z,54.17
2018-08-20T16:13:39.079Z,54.34
2018-08-20T16:16:09.011Z,55.47
2018-08-20T16:18:38.487Z,55.65
2018-08-20T16:21:07.980Z,56.13
2018-08-20T16:23:37.718Z,57.15
2018-08-20T16:26:07.171Z,58.25
2018-08-20T16:28:36.849Z,59.07
2018-08-20T16:31:06.219Z,57.99
2018-08-20T16:33:35.706Z,57.97
2018-08-20T16:36:05.313Z,58.31
2018-08-20T16:38:35.049Z,56.02
2018-08-20T16:41:04.797Z,56.78
2018-08-20T16:43:34.420Z,56.52
2018-08-20T16:46:04.765Z,56.37
2018-08-20T16:48:34.565Z,56.88
2018-08-20T16:51:04.522Z,57.29
2018-08-20T16:53:34.167Z,57.63
2018-08-20T16:56:03.966Z,57.79
2018-08-20T16:58:33.468Z,57.82
2018-08-20T17:01:04.326Z,58.15
2018-08-20T17:03:34.099Z,58.50
2018-08-20T17:06:03.760Z,57.82
2018-08-20T17:08:34.698Z,57.68
2018-08-20T17:11:04.453Z,57.64
2018-08-20T17:13:33.869Z,57.04
2018-08-20T17:16:03.676Z,58.33
2018-08-20T17:18:33.215Z,58.24
2018-08-20T17:21:02.645Z,58.49
2018-08-20T17:23:35.542Z,58.51
2018-08-20T17:26:05.750Z,58.40
2018-08-20T17:28:35.111Z,59.13
2018-08-20T17:31:12.860Z,58.37
2018-08-20T17:33:43.193Z,58.84
2018-08-20T17:36:12.518Z,58.12
2018-08-20T17:38:42.028Z,58.97
2018-08-20T17:41:11.555Z,58.57
2018-08-20T17:43:41.216Z,59.01
2018-08-20T17:46:10.773Z,59.92
2018-08-20T17:48:41.240Z,60.07
2018-08-20T17:51:11.709Z,59.84
2018-08-20T17:53:53.501Z,60.40
2018-08-20T17:56:22.930Z,59.98
2018-08-20T17:58:59.491Z,60.71
2018-08-20T18:01:29.021Z,61.06
2018-08-20T18:03:58.375Z,60.81
2018-08-20T18:06:43.381Z,61.10
2018-08-20T18:09:15.154Z,62.19
2018-08-20T18:11:51.609Z,61.73
2018-08-20T18:14:23.369Z,62.89
2018-08-20T18:16:53.488Z,62.38
2018-08-20T18:19:24.076Z,63.29
2018-08-20T18:21:53.846Z,62.62
2018-08-20T18:24:23.418Z,63.77
2018-08-20T18:26:54.611Z,63.20
2018-08-20T18:29:23.932Z,63.28
2018-08-20T18:31:53.788Z,63.34
2018-08-20T18:34:23.224Z,63.79
2018-08-20T18:36:52.554Z,64.30
2018-08-20T18:39:22.024Z,64.21
2018-08-20T18:41:57.769Z,64.63
2018-08-20T18:44:27.272Z,64.33
2018-08-20T18:46:56.891Z,64.75
2018-08-20T18:49:26.394Z,64.47
2018-08-20T18:52:13.396Z,65.00
2018-08-20T18:54:51.637Z,65.24
2018-08-20T18:57:23.680Z,65.38
2018-08-20T18:59:53.688Z,65.93
2018-08-20T19:03:01.505Z,65.48
2018-08-20T19:05:44.726Z,65.68
2018-08-20T19:08:26.181Z,65.94
2018-08-20T19:10:56.661Z,66.59
2018-08-20T19:13:26.921Z,66.88
2018-08-20T19:15:56.572Z,66.80
2018-08-20T19:18:33.472Z,67.68
2018-08-20T19:21:02.801Z,67.64
2018-08-20T19:23:32.057Z,68.34
2018-08-20T19:26:01.645Z,68.74
2018-08-20T19:28:32.284Z,68.11
2018-08-20T19:31:01.594Z,68.51
2018-08-20T19:33:32.078Z,68.99
2018-08-20T19:36:01.507Z,69.51
2018-08-20T19:38:30.745Z,69.91
2018-08-20T19:41:05.529Z,70.00
2018-08-20T19:43:54.559Z,69.18
2018-08-20T19:46:32.110Z,70.30
2018-08-20T19:49:06.749Z,70.52
2018-08-20T19:51:37.778Z,69.76
2018-08-20T19:54:08.478Z,70.60
2018-08-20T19:56:38.408Z,69.93
2018-08-20T19:59:07.829Z,70.55
2018-08-20T20:01:37.313Z,70.10
2018-08-20T20:04:06.731Z,70.74
2018-08-20T20:06:36.193Z,70.27
2018-08-20T20:09:08.573Z,70.89
2018-08-20T20:11:45.719Z,71.03
2018-08-20T20:14:15.489Z,70.61
2018-08-20T20:16:50.539Z,71.54
2018-08-20T20:19:20.500Z,71.63
2018-08-20T20:21:49.989Z,71.35
2018-08-20T20:24:19.551Z,71.87
2018-08-20T20:26:48.876Z,71.80
2018-08-20T20:29:18.475Z,72.41
2018-08-20T20:31:47.996Z,72.65
2018-08-20T20:34:17.993Z,72.25
2018-08-20T20:36:47.786Z,72.66
2018-08-20T20:39:17.418Z,73.61
2018-08-20T20:41:47.306Z,72.42
2018-08-20T20:44:16.947Z,72.79
2018-08-20T20:46:46.626Z,72.55
2018-08-20T20:49:16.247Z,73.07
2018-08-20T20:51:46.001Z,74.05
2018-08-20T20:54:15.553Z,73.44
2018-08-20T20:56:45.501Z,73.56
2018-08-20T20:59:15.384Z,74.34
2018-08-20T21:01:45.417Z,73.64
2018-08-20T21:04:15.125Z,73.98
2018-08-20T21:06:44.748Z,73.74
2018-08-20T21:09:14.592Z,73.91
2018-08-20T21:11:44.164Z,73.43
2018-08-20T21:14:14.434Z,73.98
2018-08-20T21:16:44.058Z,73.85
2018-08-20T21:19:13.724Z,74.77
2018-08-20T21:21:43.644Z,75.09
2018-08-20T21:24:13.332Z,74.34
2018-08-20T21:26:42.990Z,74.55
2018-08-20T21:29:12.557Z,74.42
2018-08-20T21:31:47.463Z,74.74
2018-08-20T21:34:17.329Z,74.55
2018-08-20T21:36:46.879Z,75.41
2018-08-20T21:39:16.399Z,74.76
2018-08-20T21:41:46.309Z,75.04
2018-08-20T21:44:15.803Z,75.77
2018-08-20T21:46:45.569Z,75.65
2018-08-20T21:49:15.168Z,76.21
2018-08-20T21:51:49.953Z,76.69
2018-08-20T21:54:23.849Z,76.86
2018-08-20T21:56:54.237Z,77.32
2018-08-20T21:59:23.595Z,76.65
2018-08-20T22:01:52.973Z,77.58
2018-08-20T22:04:23.034Z,77.39
2018-08-20T22:06:52.465Z,78.09
2018-08-20T22:09:21.818Z,77.60
2018-08-20T22:11:55.810Z,77.99
2018-08-20T22:14:25.463Z,78.58
2018-08-20T22:16:54.781Z,78.16
2018-08-20T22:19:24.345Z,78.20
2018-08-20T22:21:53.785Z,77.82
2018-08-20T22:24:23.166Z,78.55
2018-08-20T22:26:56.571Z,77.93
2018-08-20T22:29:33.571Z,78.10
2018-08-20T22:32:05.042Z,77.90
2018-08-20T22:34:34.434Z,78.42
2018-08-20T22:37:05.881Z,77.87
2018-08-20T22:39:35.355Z,77.98
2018-08-20T22:42:04.842Z,78.06
2018-08-20T22:44:34.219Z,78.45
2018-08-20T22:47:03.742Z,78.98
2018-08-20T22:49:33.242Z,79.31
2018-08-20T22:52:02.528Z,79.29
2018-08-20T22:54:31.917Z,80.20
2018-08-20T22:57:01.290Z,80.47
2018-08-20T22:59:30.542Z,80.95
2018-08-20T23:02:00.005Z,80.99
2018-08-20T23:04:29.340Z,81.19
2018-08-20T23:07:02.126Z,81.35
2018-08-20T23:09:32.736Z,81.76
2018-08-20T23:12:02.366Z,81.62
2018-08-20T23:14:33.995Z,82.08
2018-08-20T23:17:03.421Z,82.22
2018-08-20T23:19:32.837Z,82.87
2018-08-20T23:22:02.282Z,83.30
2018-08-20T23:24:32.261Z,83.97
2018-08-20T23:27:01.601Z,83.87
2018-08-20T23:29:30.925Z,83.50
2018-08-20T23:32:00.244Z,83.49
2018-08-20T23:34:29.530Z,83.56
2018-08-20T23:36:59.029Z,83.37
2018-08-20T23:39:28.988Z,83.41
2018-08-20T23:41:58.253Z,83.54
2018-08-20T23:44:27.544Z,83.83
2018-08-20T23:46:56.852Z,84.05
2018-08-20T23:49:26.140Z,84.34
2018-08-20T23:51:55.661Z,84.72
2018-08-20T23:54:25.196Z,84.70
2018-08-20T23:56:54.493Z,85.22
2018-08-20T23:59:24.101Z,84.93
